Time;durP1;ratioP1;P1;durP2;ratioP2;P2;SDS_P1;SDS_P2;PMS_P1;PMS_P2;Temp;Humidity;BMP_temperature;BMP_pressure;BME280_temperature;BME280_humidity;BME280_pressure;Samples;Min_cycle;Max_cycle;Signal;HPM_P1;HPM_P2
2023/03/01 00:01:52;;;;;;;9.48;5.78;;;;;;;3.16;51.75;103016.78;5034436;28;20026;-64
2023/03/01 00:04:17;;;;;;;9.35;5.82;;;;;;;3.07;52.12;103013.50;5016920;28;20034;-65
2023/03/01 00:06:45;;;;;;;9.15;5.65;;;;;;;2.99;51.86;103020.75;5034076;28;20033;-64
2023/03/01 00:09:12;;;;;;;9.55;6.25;;;;;;;2.94;52.06;103016.88;5033808;28;20037;-65
2023/03/01 00:11:37;;;;;;;9.63;6.05;;;;;;;2.88;52.25;103013.81;5034076;28;20080;-64
2023/03/01 00:14:09;;;;;;;10.57;6.53;;;;;;;2.91;52.48;103022.78;5034062;28;20025;-65
2023/03/01 00:16:40;;;;;;;8.73;5.85;;;;;;;2.97;52.19;103019.72;5034319;28;20051;-65
2023/03/01 00:19:07;;;;;;;10.50;6.35;;;;;;;2.98;52.31;103017.22;5033473;28;20495;-64
2023/03/01 00:21:34;;;;;;;9.77;6.20;;;;;;;3.00;51.93;103013.03;5034178;28;20056;-64
2023/03/01 00:24:01;;;;;;;9.93;6.45;;;;;;;2.99;51.92;103015.50;5033681;28;20037;-64
2023/03/01 00:26:27;;;;;;;9.30;5.90;;;;;;;3.04;52.08;103024.63;5034128;28;20029;-65
2023/03/01 00:28:53;;;;;;;8.63;6.25;;;;;;;3.05;51.61;103015.09;5034163;28;20022;-64
2023/03/01 00:31:21;;;;;;;9.80;6.22;;;;;;;3.06;52.35;103019.50;5034741;28;20108;-64
2023/03/01 00:33:48;;;;;;;8.63;6.28;;;;;;;3.00;52.55;103015.66;5034509;28;20045;-65
2023/03/01 00:36:15;;;;;;;9.10;6.38;;;;;;;2.93;52.66;103012.44;5033507;28;20068;-64
2023/03/01 00:38:45;;;;;;;9.43;6.30;;;;;;;2.85;52.66;103024.00;5033688;28;20037;-64
2023/03/01 00:41:16;;;;;;;9.10;6.32;;;;;;;2.81;52.82;103021.94;5016148;28;20029;-64
2023/03/01 00:43:42;;;;;;;9.75;6.50;;;;;;;2.79;53.15;103026.16;5033572;28;20034;-65
2023/03/01 00:46:10;;;;;;;9.13;6.43;;;;;;;2.75;52.95;103027.63;5015869;28;20038;-64
2023/03/01 00:48:36;;;;;;;9.52;6.07;;;;;;;2.74;52.95;103020.56;5033175;28;20459;-64
2023/03/01 00:51:25;;;;;;;9.02;6.20;;;;;;;2.80;52.70;103014.91;5033369;28;20032;-64
2023/03/01 00:53:53;;;;;;;8.13;5.70;;;;;;;2.75;52.92;103012.84;5033116;28;20025;-64
2023/03/01 00:56:19;;;;;;;8.57;5.75;;;;;;;2.78;53.70;103008.66;5033239;28;20018;-64
2023/03/01 00:58:44;;;;;;;10.88;6.10;;;;;;;2.71;53.28;103005.59;5033247;28;20029;-64
2023/03/01 01:01:17;;;;;;;9.90;6.05;;;;;;;2.74;53.33;102992.78;5033394;28;20029;-64
2023/03/01 01:03:52;;;;;;;9.73;6.35;;;;;;;2.71;53.29;102992.53;5033176;28;20494;-63
2023/03/01 01:06:26;;;;;;;10.43;6.03;;;;;;;2.62;53.82;102994.44;5033436;28;20087;-64
2023/03/01 01:08:53;;;;;;;8.15;6.00;;;;;;;2.63;53.61;102991.03;5032964;28;20030;-64
2023/03/01 01:11:20;;;;;;;9.20;6.57;;;;;;;2.60;53.46;102989.88;5033130;28;20026;-65
2023/03/01 01:13:46;;;;;;;9.27;6.32;;;;;;;2.56;53.70;102996.56;5032975;28;20067;-65
2023/03/01 01:16:13;;;;;;;14.10;6.30;;;;;;;2.49;53.79;102991.66;5033090;28;20095;-64
2023/03/01 01:18:38;;;;;;;12.20;6.35;;;;;;;2.42;53.87;102997.19;5033007;28;20111;-64
2023/03/01 01:21:07;;;;;;;11.35;6.05;;;;;;;2.32;54.21;102997.28;5032901;28;20517;-64
2023/03/01 01:23:32;;;;;;;9.68;6.22;;;;;;;2.31;54.45;102998.03;5032888;28;20021;-64
2023/03/01 01:26:03;;;;;;;10.15;6.60;;;;;;;2.32;54.13;102985.13;5032834;28;20388;-65
2023/03/01 01:28:29;;;;;;;9.27;6.07;;;;;;;2.35;54.07;102974.91;5015085;28;20047;-64
2023/03/01 01:30:54;;;;;;;10.32;6.07;;;;;;;2.32;54.18;102968.56;5033903;28;20029;-64
2023/03/01 01:33:19;;;;;;;13.13;5.95;;;;;;;2.32;54.38;102966.88;5036997;28;20045;-64
2023/03/01 01:35:46;;;;;;;9.52;6.15;;;;;;;2.26;54.54;102958.53;5036745;28;20129;-64
2023/03/01 01:38:11;;;;;;;15.90;6.10;;;;;;;2.18;54.95;102962.25;5037121;28;20061;-65
2023/03/01 01:40:46;;;;;;;11.65;6.10;;;;;;;2.14;55.00;102952.38;5036980;28;20076;-64
2023/03/01 01:43:23;;;;;;;9.90;5.90;;;;;;;2.14;54.94;102953.31;5036945;28;20037;-64
2023/03/01 01:45:50;;;;;;;9.20;5.78;;;;;;;2.07;54.96;102948.38;5036616;28;20497;-64
2023/03/01 01:48:22;;;;;;;10.40;6.35;;;;;;;2.07;55.09;102958.81;5036486;28;20487;-64
2023/03/01 01:50:56;;;;;;;11.03;6.17;;;;;;;2.06;55.04;102949.19;5036673;28;20051;-64
2023/03/01 01:53:23;;;;;;;8.95;6.15;;;;;;;2.03;55.43;102943.72;5036587;28;20754;-64
2023/03/01 01:55:56;;;;;;;10.77;6.35;;;;;;;2.03;55.70;102950.63;5036380;28;20125;-65
2023/03/01 01:58:25;;;;;;;9.98;6.03;;;;;;;2.08;55.13;102949.28;5036834;28;20383;-64
2023/03/01 02:00:50;;;;;;;9.90;5.65;;;;;;;2.13;55.32;102947.94;5036636;28;20055;-64
2023/03/01 02:03:23;;;;;;;8.98;6.10;;;;;;;2.03;55.48;102940.19;5036712;28;20025;-64
2023/03/01 02:06:04;;;;;;;9.38;6.10;;;;;;;1.94;55.87;102941.28;5036630;28;20029;-64
2023/03/01 02:08:33;;;;;;;8.45;5.75;;;;;;;1.95;55.59;102929.16;5036205;28;20475;-65
2023/03/01 02:10:59;;;;;;;9.55;6.13;;;;;;;1.92;55.59;102935.03;5036116;28;20033;-64
2023/03/01 02:13:25;;;;;;;8.93;6.03;;;;;;;1.91;55.81;102932.31;5036298;28;20018;-64
2023/03/01 02:15:51;;;;;;;9.40;6.13;;;;;;;1.90;55.89;102925.28;5036227;28;20057;-65
2023/03/01 02:18:20;;;;;;;8.48;5.57;;;;;;;1.87;56.07;102928.53;5036082;28;20068;-65
2023/03/01 02:21:08;;;;;;;9.20;5.68;;;;;;;1.93;55.34;102922.94;5036178;28;20025;-63
2023/03/01 02:23:34;;;;;;;13.00;6.15;;;;;;;1.89;55.70;102918.25;5023151;28;20083;-64
2023/03/01 02:26:19;;;;;;;8.77;5.75;;;;;;;1.92;55.60;102928.91;5036483;28;20467;-63
2023/03/01 02:28:45;;;;;;;8.77;5.85;;;;;;;1.85;56.02;102929.22;5036068;28;20057;-64
2023/03/01 02:34:00;;;;;;;8.98;5.78;;;;;;;1.72;56.19;102922.13;5036528;28;20075;-64
2023/03/01 02:36:42;;;;;;;8.38;5.47;;;;;;;1.68;56.69;102927.88;5035561;28;20112;-63
2023/03/01 02:39:16;;;;;;;9.90;5.93;;;;;;;1.69;56.71;102922.78;5035808;28;20099;-63
2023/03/01 02:41:48;;;;;;;8.88;5.93;;;;;;;1.63;56.33;102922.31;5035512;28;20041;-63
2023/03/01 02:44:14;;;;;;;8.70;5.68;;;;;;;1.58;56.94;102923.59;5035015;28;20033;-64
2023/03/01 02:47:02;;;;;;;8.75;5.85;;;;;;;1.66;56.24;102927.75;5035505;28;20112;-64
2023/03/01 02:49:31;;;;;;;9.20;5.80;;;;;;;1.69;56.74;102922.78;5035834;28;20030;-63
2023/03/01 02:51:56;;;;;;;9.15;5.55;;;;;;;1.72;56.76;102924.75;5035541;28;20476;-63
2023/03/01 02:54:33;;;;;;;9.48;5.80;;;;;;;1.76;56.12;102929.41;5035441;28;20052;-64
2023/03/01 02:56:59;;;;;;;9.23;5.72;;;;;;;1.83;56.15;102922.97;5035497;28;20040;-64
2023/03/01 02:59:30;;;;;;;8.07;5.55;;;;;;;1.89;56.03;102926.09;5035664;28;20124;-63
2023/03/01 03:01:55;;;;;;;9.25;5.50;;;;;;;1.93;55.86;102931.66;5035630;28;20490;-64
2023/03/01 03:04:21;;;;;;;12.15;5.90;;;;;;;1.92;56.02;102919.38;5035393;28;20056;-63
2023/03/01 03:06:47;;;;;;;8.43;5.60;;;;;;;1.94;55.90;102916.91;5035143;28;20101;-63
2023/03/01 03:09:14;;;;;;;8.57;5.80;;;;;;;1.94;55.70;102914.31;5035059;28;20029;-63
2023/03/01 03:11:41;;;;;;;9.82;5.63;;;;;;;1.92;55.80;102919.38;5035347;28;20033;-63
2023/03/01 03:14:12;;;;;;;10.13;5.63;;;;;;;1.83;56.28;102920.38;5035053;28;20055;-63
2023/03/01 03:16:46;;;;;;;8.93;5.55;;;;;;;1.70;56.72;102924.59;5035417;28;20044;-63
2023/03/01 03:19:12;;;;;;;10.75;6.10;;;;;;;1.65;56.58;102925.94;5034839;28;20022;-63
2023/03/01 03:21:37;;;;;;;8.90;5.75;;;;;;;1.60;57.04;102928.97;5017580;28;20037;-63
2023/03/01 03:24:04;;;;;;;11.07;5.32;;;;;;;1.53;57.40;102921.44;5035032;28;20025;-63
2023/03/01 03:26:29;;;;;;;12.90;5.53;;;;;;;1.44;57.39;102926.81;5034789;28;20656;-63
2023/03/01 03:28:55;;;;;;;8.25;5.60;;;;;;;1.38;57.67;102914.22;5034828;28;20032;-63
2023/03/01 03:31:20;;;;;;;8.02;5.22;;;;;;;1.39;57.56;102928.13;5034799;28;20026;-63
2023/03/01 03:33:46;;;;;;;9.93;5.97;;;;;;;1.37;57.60;102919.28;5034761;28;20037;-63
2023/03/01 03:36:20;;;;;;;10.90;5.63;;;;;;;1.38;57.93;102923.72;5034427;28;20042;-63
2023/03/01 03:38:46;;;;;;;10.32;5.55;;;;;;;1.38;57.93;102914.22;5034723;28;20476;-63
2023/03/01 03:41:12;;;;;;;9.60;5.47;;;;;;;1.33;58.39;102918.13;5034633;28;20104;-63
2023/03/01 03:43:39;;;;;;;10.32;5.60;;;;;;;1.27;58.79;102916.72;5034389;28;20029;-63
2023/03/01 03:46:05;;;;;;;8.32;5.47;;;;;;;1.18;58.94;102920.38;5034694;28;20036;-63
2023/03/01 03:48:35;;;;;;;8.13;5.00;;;;;;;1.18;59.00;102925.59;5034560;28;20037;-62
2023/03/01 03:51:01;;;;;;;7.90;5.22;;;;;;;1.21;58.86;102914.53;5034981;28;20025;-63
2023/03/01 03:53:28;;;;;;;10.25;5.70;;;;;;;1.19;58.31;102918.69;5034642;28;20084;-63
2023/03/01 03:55:54;;;;;;;9.18;5.40;;;;;;;1.23;59.17;102921.66;5035416;28;20022;-63
2023/03/01 03:58:22;;;;;;;11.30;5.13;;;;;;;1.21;59.44;102917.13;5034863;28;20038;-62
2023/03/01 04:00:50;;;;;;;7.75;4.80;;;;;;;1.19;59.30;102910.88;5034142;28;20028;-62
2023/03/01 04:03:18;;;;;;;8.02;5.00;;;;;;;1.14;59.24;102913.09;5034083;28;20037;-62
2023/03/01 04:05:44;;;;;;;7.80;4.97;;;;;;;1.19;58.72;102903.97;5034464;28;20026;-63
2023/03/01 04:08:10;;;;;;;8.70;5.07;;;;;;;1.21;58.71;102896.31;5034006;28;20026;-62
2023/03/01 04:10:41;;;;;;;8.30;5.10;;;;;;;1.19;59.19;102888.34;5033881;28;20360;-63
2023/03/01 04:13:09;;;;;;;9.50;4.70;;;;;;;1.18;59.51;102893.44;5034102;28;20586;-63
2023/03/01 04:15:35;;;;;;;8.52;4.90;;;;;;;1.16;59.06;102884.63;5033944;28;20065;-63
2023/03/01 04:18:01;;;;;;;8.13;4.90;;;;;;;1.11;59.92;102891.13;5033677;28;20057;-63
2023/03/01 04:20:29;;;;;;;7.60;4.80;;;;;;;1.05;59.53;102901.94;5016061;28;20113;-63
2023/03/01 04:23:10;;;;;;;7.85;4.35;;;;;;;1.05;59.77;102891.53;5033975;28;20068;-63
2023/03/01 04:25:38;;;;;;;8.15;5.55;;;;;;;1.02;60.11;102888.66;5033870;28;20045;-64
2023/03/01 04:28:05;;;;;;;6.63;4.80;;;;;;;0.91;60.55;102880.00;5033793;28;20032;-64
2023/03/01 04:30:35;;;;;;;8.27;5.28;;;;;;;0.85;60.12;102886.38;5033637;28;20028;-63
2023/03/01 04:33:02;;;;;;;8.27;4.97;;;;;;;0.80;60.79;102886.00;5033884;28;20036;-63
2023/03/01 04:35:27;;;;;;;10.20;5.38;;;;;;;0.77;60.46;102879.63;5033369;28;20079;-64
2023/03/01 04:37:53;;;;;;;7.68;5.22;;;;;;;0.79;60.83;102878.06;5033551;28;20048;-64
2023/03/01 04:40:18;;;;;;;7.90;5.22;;;;;;;0.78;60.64;102876.25;5033393;28;20040;-64
2023/03/01 04:42:43;;;;;;;8.00;5.00;;;;;;;0.74;61.24;102873.41;5015746;28;20103;-63
2023/03/01 04:45:15;;;;;;;8.80;5.10;;;;;;;0.77;60.24;102871.81;5033430;28;20074;-63
2023/03/01 04:47:42;;;;;;;11.75;5.18;;;;;;;0.78;61.01;102871.06;5033188;28;20033;-63
2023/03/01 04:50:09;;;;;;;9.75;5.43;;;;;;;0.72;61.03;102867.13;5033379;28;20364;-63
2023/03/01 04:52:35;;;;;;;7.68;5.22;;;;;;;0.71;60.75;102861.81;5033247;28;20426;-63
2023/03/01 04:55:01;;;;;;;7.50;5.40;;;;;;;0.68;60.88;102856.34;5033486;28;20105;-63
2023/03/01 04:57:26;;;;;;;9.15;5.20;;;;;;;0.67;61.08;102854.53;5033512;28;20033;-63
2023/03/01 04:59:52;;;;;;;8.20;5.60;;;;;;;0.60;61.77;102857.41;5033277;28;20040;-63
2023/03/01 05:02:17;;;;;;;9.65;5.85;;;;;;;0.58;61.84;102862.50;5033148;28;20026;-63
2023/03/01 05:04:43;;;;;;;8.50;5.55;;;;;;;0.67;61.55;102862.34;5033171;28;20052;-63
2023/03/01 05:07:08;;;;;;;11.82;6.57;;;;;;;0.70;60.77;102862.63;5032538;28;20111;-63
2023/03/01 05:09:34;;;;;;;9.27;6.20;;;;;;;0.66;61.24;102863.13;5033012;28;20032;-63
2023/03/01 05:11:59;;;;;;;7.93;5.43;;;;;;;0.63;61.70;102858.56;5032966;28;20037;-63
2023/03/01 05:14:24;;;;;;;9.55;5.78;;;;;;;0.63;61.23;102861.19;5033973;28;20049;-63
2023/03/01 05:16:50;;;;;;;8.30;5.28;;;;;;;0.70;60.92;102865.22;5052735;28;20025;-63
2023/03/01 05:19:15;;;;;;;10.65;5.32;;;;;;;0.74;60.81;102854.28;5052613;28;20029;-63
2023/03/01 05:22:03;;;;;;;11.00;5.20;;;;;;;0.75;60.88;102858.69;5052847;28;20074;-63
2023/03/01 05:24:30;;;;;;;7.68;4.93;;;;;;;0.77;60.28;102853.59;5052989;28;20120;-62
2023/03/01 05:26:56;;;;;;;9.38;5.80;;;;;;;0.78;60.70;102845.03;5052714;28;20040;-63
2023/03/01 05:29:24;;;;;;;7.75;5.45;;;;;;;0.76;60.84;102837.09;5034930;28;20025;-63
2023/03/01 05:32:00;;;;;;;8.65;5.15;;;;;;;0.78;60.63;102839.84;5052581;28;20116;-63
2023/03/01 05:34:35;;;;;;;7.50;5.30;;;;;;;0.82;60.58;102839.31;5052706;28;20036;-63
2023/03/01 05:37:00;;;;;;;7.95;5.32;;;;;;;0.83;60.51;102834.22;5052537;28;20068;-63
2023/03/01 05:39:27;;;;;;;8.95;5.40;;;;;;;0.78;60.52;102826.81;5052512;28;20041;-63
2023/03/01 05:41:55;;;;;;;9.38;5.57;;;;;;;0.77;60.34;102827.59;5052657;28;20471;-63
2023/03/01 05:44:21;;;;;;;7.95;5.40;;;;;;;0.73;60.57;102823.84;5052564;28;20040;-63
2023/03/01 05:46:47;;;;;;;9.45;5.68;;;;;;;0.69;60.88;102826.97;5052830;28;20378;-64
2023/03/01 05:49:13;;;;;;;8.70;5.57;;;;;;;0.63;60.65;102823.84;5052563;28;20351;-64
2023/03/01 05:51:39;;;;;;;9.45;5.55;;;;;;;0.64;60.66;102813.59;5052816;28;20040;-63
2023/03/01 05:54:05;;;;;;;9.57;5.90;;;;;;;0.60;60.74;102818.38;5034477;28;20033;-62
2023/03/01 05:56:36;;;;;;;8.95;5.47;;;;;;;0.52;61.09;102814.28;5052647;28;20364;-63
2023/03/01 05:59:04;;;;;;;8.38;5.30;;;;;;;0.54;61.54;102820.50;5052480;28;20483;-63
2023/03/01 06:01:30;;;;;;;9.93;5.90;;;;;;;0.49;61.28;102814.91;5052295;28;20487;-63
2023/03/01 06:03:56;;;;;;;10.80;5.68;;;;;;;0.46;61.63;102819.84;5052424;28;20033;-62
2023/03/01 06:06:25;;;;;;;9.27;5.32;;;;;;;0.42;61.41;102817.78;5052684;28;20075;-62
2023/03/01 06:08:51;;;;;;;8.23;5.38;;;;;;;0.40;61.81;102822.88;5052255;28;20577;-63
2023/03/01 06:11:16;;;;;;;8.95;5.55;;;;;;;0.43;61.55;102827.44;5052353;28;20021;-63
2023/03/01 06:13:43;;;;;;;8.43;5.60;;;;;;;0.38;61.59;102815.69;5052470;28;20032;-62
2023/03/01 06:16:09;;;;;;;11.50;5.82;;;;;;;0.34;61.66;102819.72;5052360;28;20510;-62
2023/03/01 06:18:35;;;;;;;8.82;6.18;;;;;;;0.25;62.30;102812.06;5055821;28;20039;-62
2023/03/01 06:21:01;;;;;;;9.45;6.10;;;;;;;0.17;62.90;102817.41;5056407;28;20029;-62
2023/03/01 06:23:26;;;;;;;13.35;6.60;;;;;;;0.10;62.56;102818.59;5055880;28;20384;-62
2023/03/01 06:25:52;;;;;;;13.32;6.88;;;;;;;0.02;63.36;102819.63;5055937;28;20025;-62
2023/03/01 06:28:17;;;;;;;11.98;6.40;;;;;;;0.01;63.63;102814.31;5055919;28;20437;-63
2023/03/01 06:30:43;;;;;;;11.15;6.63;;;;;;;0.03;63.22;102824.03;5055882;28;20544;-63
2023/03/01 06:33:08;;;;;;;17.58;7.18;;;;;;;-0.02;63.98;102828.84;5056121;28;20078;-63
2023/03/01 06:35:34;;;;;;;14.02;7.32;;;;;;;-0.03;63.38;102829.66;5055484;28;20541;-63
2023/03/01 06:38:02;;;;;;;13.90;7.40;;;;;;;0.01;63.75;102829.91;5055736;28;20025;-63
2023/03/01 06:40:28;;;;;;;12.57;7.15;;;;;;;0.02;63.90;102831.72;5055837;28;20108;-62
2023/03/01 06:42:54;;;;;;;10.88;6.45;;;;;;;0.08;63.54;102827.94;5038025;28;20024;-62
2023/03/01 06:45:20;;;;;;;9.70;5.80;;;;;;;0.14;63.26;102835.38;5055723;28;20474;-63
2023/03/01 06:47:46;;;;;;;9.52;6.18;;;;;;;0.18;63.57;102832.25;5055592;28;20040;-63
2023/03/01 06:50:13;;;;;;;9.50;6.00;;;;;;;0.23;63.29;102829.25;5055306;28;20527;-63
2023/03/01 06:52:38;;;;;;;12.88;6.25;;;;;;;0.30;62.62;102832.34;5055454;28;20024;-63
2023/03/01 06:55:05;;;;;;;9.65;6.00;;;;;;;0.34;62.95;102826.63;5055554;28;20375;-62
2023/03/01 06:57:30;;;;;;;11.38;6.18;;;;;;;0.32;63.29;102834.31;5055278;28;20024;-62
2023/03/01 06:59:56;;;;;;;18.13;10.05;;;;;;;0.27;63.06;102830.41;5037422;28;20040;-62
2023/03/01 07:02:22;;;;;;;13.07;6.80;;;;;;;0.35;64.12;102825.88;5055403;28;20108;-63
2023/03/01 07:04:49;;;;;;;10.32;6.28;;;;;;;0.50;63.74;102817.63;5055181;28;20043;-63
2023/03/01 07:07:14;;;;;;;9.55;5.97;;;;;;;0.79;64.11;102823.44;5055391;28;20032;-63
2023/03/01 07:09:40;;;;;;;10.75;6.53;;;;;;;1.05;62.98;102820.34;5055250;28;20467;-63
2023/03/01 07:12:06;;;;;;;10.02;6.55;;;;;;;1.27;62.54;102820.38;5055073;28;20071;-63
2023/03/01 07:14:31;;;;;;;12.80;6.47;;;;;;;1.55;61.95;102811.34;5054892;28;20026;-63
2023/03/01 07:16:56;;;;;;;10.70;7.10;;;;;;;1.78;60.92;102817.44;5054972;28;20033;-63
2023/03/01 07:19:22;;;;;;;12.57;6.65;;;;;;;2.03;60.43;102813.34;5054979;28;20035;-64
2023/03/01 07:21:48;;;;;;;10.65;6.90;;;;;;;2.17;60.19;102815.28;5055201;28;20467;-63
2023/03/01 07:24:13;;;;;;;10.15;6.57;;;;;;;2.41;59.97;102821.47;5037018;28;20021;-64
2023/03/01 07:26:39;;;;;;;9.85;6.45;;;;;;;2.65;59.26;102834.53;5054810;28;20025;-63
2023/03/01 07:29:06;;;;;;;9.43;6.63;;;;;;;2.83;58.51;102837.63;5053891;28;20491;-64
2023/03/01 07:31:32;;;;;;;10.70;6.38;;;;;;;2.97;57.82;102834.31;5054874;28;20032;-63
2023/03/01 07:33:58;;;;;;;11.93;6.68;;;;;;;3.19;58.24;102835.09;5054719;28;20021;-64
2023/03/01 07:36:24;;;;;;;10.32;6.22;;;;;;;3.49;57.66;102833.75;5054203;28;20049;-64
2023/03/01 07:38:50;;;;;;;12.70;6.53;;;;;;;3.73;56.92;102820.63;5054972;28;20429;-63
2023/03/01 07:41:15;;;;;;;11.30;6.88;;;;;;;3.99;56.78;102838.13;5054709;28;20021;-63
2023/03/01 07:43:41;;;;;;;12.55;7.50;;;;;;;4.24;55.69;102832.88;5055054;28;20025;-63
2023/03/01 07:46:06;;;;;;;13.57;7.70;;;;;;;4.40;55.60;102834.81;5054927;28;20027;-63
2023/03/01 07:48:32;;;;;;;17.77;11.00;;;;;;;4.53;55.41;102833.09;5054373;28;20036;-64
2023/03/01 07:50:59;;;;;;;15.10;9.68;;;;;;;4.68;55.47;102833.25;5036666;28;20426;-64
2023/03/01 07:53:25;;;;;;;15.15;8.50;;;;;;;4.85;53.53;102828.22;5054312;28;20025;-64
2023/03/01 07:56:00;;;;;;;10.20;8.07;;;;;;;5.03;53.94;102834.66;5054409;28;20029;-64
2023/03/01 07:58:25;;;;;;;11.35;7.25;;;;;;;5.12;53.12;102826.47;5036357;28;20028;-63
2023/03/01 08:00:51;;;;;;;10.55;6.95;;;;;;;5.22;52.45;102819.31;5054195;28;20065;-64
2023/03/01 08:03:16;;;;;;;12.93;7.63;;;;;;;5.36;51.80;102827.16;5053996;28;20532;-63
2023/03/01 08:05:41;;;;;;;13.38;7.10;;;;;;;5.58;52.16;102819.84;5054152;28;20036;-63
2023/03/01 08:08:07;;;;;;;10.55;7.32;;;;;;;5.65;51.38;102827.28;5053912;28;20060;-64
2023/03/01 08:10:32;;;;;;;11.32;7.22;;;;;;;5.75;50.32;102828.75;5053981;28;20407;-64
2023/03/01 08:12:57;;;;;;;10.65;6.95;;;;;;;5.94;50.24;102825.56;5052556;28;20029;-63
2023/03/01 08:15:24;;;;;;;15.40;7.30;;;;;;;6.14;49.79;102824.16;5053595;28;20025;-64
2023/03/01 08:17:50;;;;;;;10.02;6.72;;;;;;;6.37;50.66;102828.16;5048946;28;20391;-64
2023/03/01 08:20:16;;;;;;;14.52;7.55;;;;;;;6.59;49.08;102825.97;5016063;28;20029;-64
2023/03/01 08:22:42;;;;;;;11.77;6.97;;;;;;;6.70;48.42;102819.66;5034006;28;20033;-64
2023/03/01 08:25:07;;;;;;;10.52;6.85;;;;;;;6.95;48.43;102818.44;5033657;28;20037;-64
2023/03/01 08:27:33;;;;;;;9.93;6.82;;;;;;;7.10;47.97;102816.66;5015863;28;20116;-64
2023/03/01 08:29:58;;;;;;;12.93;6.90;;;;;;;7.35;47.10;102815.41;5033605;28;20033;-64
2023/03/01 08:32:24;;;;;;;10.68;7.20;;;;;;;7.67;46.73;102818.09;5033554;28;20368;-64
2023/03/01 08:34:49;;;;;;;13.30;8.10;;;;;;;7.95;45.65;102812.56;5033609;28;20304;-64
2023/03/01 08:37:14;;;;;;;9.52;6.78;;;;;;;8.15;45.73;102818.91;5033195;28;20407;-64
2023/03/01 08:39:40;;;;;;;12.52;7.25;;;;;;;8.39;44.43;102810.47;5033587;28;20049;-64
2023/03/01 08:42:05;;;;;;;11.32;8.50;;;;;;;8.56;43.33;102806.97;5015731;28;20033;-63
2023/03/01 08:44:30;;;;;;;12.77;6.97;;;;;;;8.58;43.02;102804.41;5033411;28;20025;-64
2023/03/01 08:46:57;;;;;;;11.48;6.30;;;;;;;8.59;42.87;102806.22;5033579;28;20034;-64
2023/03/01 08:49:23;;;;;;;9.60;6.35;;;;;;;8.72;42.36;102792.81;5033118;28;20033;-64
2023/03/01 08:51:48;;;;;;;11.98;6.47;;;;;;;8.87;42.12;102784.78;5033612;28;20080;-63
2023/03/01 08:54:20;;;;;;;8.43;6.13;;;;;;;9.09;42.21;102787.63;5033208;28;20025;-64
2023/03/01 08:56:46;;;;;;;12.82;6.25;;;;;;;9.30;41.39;102790.38;5033143;28;20072;-64
2023/03/01 08:59:13;;;;;;;11.13;6.20;;;;;;;9.32;40.52;102796.63;5033083;28;20087;-64
2023/03/01 09:01:40;;;;;;;8.80;6.30;;;;;;;9.42;40.59;102800.56;5033293;28;20032;-65
2023/03/01 09:04:06;;;;;;;9.85;6.25;;;;;;;9.66;40.59;102791.16;5033370;28;20040;-64
2023/03/01 09:06:33;;;;;;;9.85;6.15;;;;;;;9.67;40.44;102785.03;5033106;28;20084;-65
2023/03/01 09:08:58;;;;;;;9.98;6.65;;;;;;;9.86;39.92;102780.63;5032917;28;20072;-65
2023/03/01 09:11:24;;;;;;;8.73;6.15;;;;;;;9.97;39.11;102781.97;5032983;28;20065;-65
2023/03/01 09:13:50;;;;;;;12.27;7.20;;;;;;;9.97;40.01;102776.69;5033026;28;20500;-64
2023/03/01 09:16:18;;;;;;;9.30;5.90;;;;;;;10.12;39.28;102779.13;5032889;28;20040;-64
2023/03/01 09:18:45;;;;;;;11.10;6.60;;;;;;;10.15;38.11;102774.88;5032883;28;20116;-64
2023/03/01 09:21:15;;;;;;;8.93;6.18;;;;;;;10.41;38.64;102769.84;5032878;28;20041;-64
2023/03/01 09:23:44;;;;;;;9.85;5.82;;;;;;;10.79;37.88;102776.69;5015208;28;20025;-64
2023/03/01 09:26:13;;;;;;;11.00;6.15;;;;;;;11.13;38.05;102768.38;5032936;28;20030;-64
2023/03/01 09:28:40;;;;;;;8.18;5.90;;;;;;;11.56;36.67;102766.47;5032955;28;20021;-64
2023/03/01 09:31:06;;;;;;;9.10;6.05;;;;;;;11.86;35.68;102767.66;5032667;28;20490;-64
2023/03/01 09:33:32;;;;;;;8.80;6.15;;;;;;;12.08;35.80;102764.03;5033097;28;20022;-64
2023/03/01 09:35:59;;;;;;;9.45;6.20;;;;;;;12.42;35.38;102762.50;5032543;28;20059;-64
2023/03/01 09:38:25;;;;;;;9.35;6.00;;;;;;;12.51;33.72;102758.44;5032830;28;20034;-64
2023/03/01 09:40:51;;;;;;;9.75;5.95;;;;;;;12.61;33.21;102749.03;5015022;28;20079;-64
2023/03/01 09:43:54;;;;;;;9.02;6.18;;;;;;;12.47;33.48;102758.28;5032848;28;20032;-64
2023/03/01 09:46:21;;;;;;;;;;;;;;;12.51;33.98;102746.94;5029963;28;20037;-64
2023/03/01 09:48:54;;;;;;;9.73;5.65;;;;;;;12.65;33.52;102748.28;5032523;28;20398;-64
2023/03/01 09:51:26;;;;;;;11.75;6.10;;;;;;;12.83;32.12;102747.06;5032715;28;20475;-64
2023/03/01 09:53:54;;;;;;;;;;;;;;;13.13;31.66;102737.41;5037026;28;20026;-65
2023/03/01 09:56:26;;;;;;;8.38;5.55;;;;;;;12.98;31.72;102744.91;5036496;28;20283;-64
2023/03/01 09:59:21;;;;;;;9.23;5.47;;;;;;;12.84;31.54;102740.91;5036559;28;20044;-64
2023/03/01 10:01:59;;;;;;;9.52;5.88;;;;;;;12.75;31.36;102746.81;5009486;28;20032;-63
2023/03/01 10:04:43;;;;;;;9.30;5.82;;;;;;;12.38;31.73;102732.38;5036316;28;20063;-63
2023/03/01 10:07:24;;;;;;;8.80;5.57;;;;;;;12.72;32.59;102726.41;5036451;28;20026;-64
2023/03/01 10:09:50;;;;;;;7.95;6.10;;;;;;;13.13;31.15;102723.25;5036425;28;20032;-64
2023/03/01 10:12:20;;;;;;;8.57;5.70;;;;;;;12.75;31.27;102715.00;5018597;28;20033;-64
2023/03/01 10:14:55;;;;;;;10.23;5.82;;;;;;;12.73;31.53;102712.28;5037665;28;20018;-63
2023/03/01 10:17:52;;;;;;;9.60;6.50;;;;;;;12.94;32.06;102695.25;5037986;28;20026;-64
2023/03/01 10:20:18;;;;;;;9.23;5.90;;;;;;;13.10;31.66;102702.81;5036421;28;20025;-64
2023/03/01 10:22:50;;;;;;;10.90;5.97;;;;;;;13.23;31.05;102704.09;5036115;28;20026;-64
2023/03/01 10:25:21;;;;;;;9.55;6.57;;;;;;;13.22;30.14;102694.31;5035912;28;20040;-64
2023/03/01 10:27:54;;;;;;;9.65;6.05;;;;;;;13.39;31.35;102682.47;5036340;28;20383;-64
2023/03/01 10:30:41;;;;;;;8.50;5.85;;;;;;;13.55;31.72;102683.81;5035919;28;20026;-64
2023/03/01 10:33:27;;;;;;;11.85;5.82;;;;;;;13.81;30.70;102676.53;5036189;28;20022;-64
2023/03/01 10:35:52;;;;;;;8.45;6.18;;;;;;;13.96;29.57;102679.63;5035617;28;20046;-64
2023/03/01 10:38:20;;;;;;;9.60;6.32;;;;;;;13.79;29.10;102680.94;5035687;28;20041;-64
2023/03/01 10:40:59;;;;;;;11.30;6.25;;;;;;;13.70;30.39;102678.94;5035845;28;20079;-64
2023/03/01 10:43:26;;;;;;;8.80;5.95;;;;;;;13.39;29.55;102671.84;5035686;28;20029;-64
2023/03/01 10:45:52;;;;;;;8.63;5.85;;;;;;;13.25;29.91;102670.56;5017998;28;20065;-64
2023/03/01 10:48:28;;;;;;;9.15;5.90;;;;;;;13.50;29.79;102683.69;5035734;28;20041;-64
2023/03/01 10:50:59;;;;;;;9.02;5.53;;;;;;;14.17;29.77;102673.94;5035479;28;20514;-64
2023/03/01 10:53:34;;;;;;;9.45;6.15;;;;;;;14.18;28.70;102673.09;5035268;28;20396;-64
2023/03/01 10:56:06;;;;;;;9.35;6.05;;;;;;;14.36;28.08;102675.31;5035572;28;20033;-64
2023/03/01 10:58:33;;;;;;;10.03;6.30;;;;;;;14.50;27.79;102668.56;5035626;28;20387;-64
2023/03/01 11:01:01;;;;;;;8.10;6.20;;;;;;;14.59;27.68;102670.56;5035445;28;20112;-64
2023/03/01 11:03:33;;;;;;;8.85;6.45;;;;;;;14.51;28.04;102667.72;5034258;28;20087;-64
2023/03/01 11:06:11;;;;;;;10.73;6.35;;;;;;;14.34;29.06;102671.69;5035349;28;20025;-64
2023/03/01 11:08:36;;;;;;;10.05;6.50;;;;;;;14.68;28.31;102676.09;5035310;28;20030;-65
2023/03/01 11:11:25;;;;;;;8.93;6.13;;;;;;;14.49;28.54;102669.44;5035213;28;20029;-64
2023/03/01 11:13:51;;;;;;;10.43;6.82;;;;;;;14.17;28.47;102681.00;5035076;28;20036;-65
2023/03/01 11:16:27;;;;;;;10.95;6.72;;;;;;;14.15;29.05;102673.00;5035261;28;20017;-64
2023/03/01 11:19:17;;;;;;;9.95;7.00;;;;;;;14.10;29.05;102661.38;5035165;28;20022;-65
2023/03/01 11:22:11;;;;;;;11.88;6.93;;;;;;;14.28;29.51;102663.56;5016774;28;20071;-65
2023/03/01 11:24:43;;;;;;;11.52;6.78;;;;;;;14.32;28.48;102662.78;5034875;28;20026;-65
2023/03/01 11:27:17;;;;;;;12.30;7.00;;;;;;;14.32;28.43;102657.47;5034820;28;20121;-65
2023/03/01 11:29:46;;;;;;;11.13;6.50;;;;;;;14.38;28.23;102651.38;5035025;28;20105;-65
2023/03/01 11:32:15;;;;;;;10.15;6.50;;;;;;;14.51;27.90;102662.38;5034628;28;20029;-65
2023/03/01 11:34:47;;;;;;;8.52;6.30;;;;;;;14.63;27.86;102656.47;5034635;28;20104;-65
2023/03/01 11:37:26;;;;;;;9.63;6.28;;;;;;;14.42;28.19;102669.22;5034533;28;20056;-66
2023/03/01 11:40:04;;;;;;;9.43;6.40;;;;;;;14.15;28.83;102662.38;5034814;28;20078;-66